Terminal Aerodrome Forecast
Issued by NWS

Home | Current Version | Previous Version | Text Only | Print | Product List | Glossary On
Versions: 1 2 3 4 5 6 7 8 9 10 11 12 13 14 15
000
FTUS46 KSGX 260500
TAFSNA
TAF
KSNA 260520Z 2606/2706 19007KT P6SM SCT012 SCT180
     FM261000 VRB04KT P6SM BKN012
     FM261600 VRB04KT P6SM SCT120
     FM262100 26008KT P6SM SCT120
     FM270200 26004KT P6SM SCT100=

USA.gov is the U.S. government's official web portal to all federal, state and local government web resources and services.